createdAt,value
2023-11-18T00:05:32.761Z,69.01
2023-11-18T00:15:36.202Z,68.84
2023-11-18T00:25:41.284Z,69.04
2023-11-18T00:35:45.068Z,68.89
2023-11-18T00:45:49.302Z,68.65
2023-11-18T00:55:52.270Z,68.52
2023-11-18T01:05:56.542Z,68.25
2023-11-18T01:15:59.589Z,68.72
2023-11-18T01:26:06.110Z,68.85
2023-11-18T01:36:11.352Z,68.82
2023-11-18T01:46:15.861Z,69.22
2023-11-18T01:56:20.061Z,68.90
2023-11-18T02:06:24.562Z,68.97
2023-11-18T02:16:29.109Z,68.94
2023-11-18T02:26:33.492Z,69.39
2023-11-18T02:36:46.609Z,69.22
2023-11-18T02:46:51.180Z,68.96
2023-11-18T02:56:54.227Z,68.55
2023-11-18T03:06:58.515Z,69.21
2023-11-18T03:17:02.249Z,69.67
2023-11-18T03:27:06.854Z,69.64
2023-11-18T03:37:10.409Z,69.78
2023-11-18T03:47:15.438Z,69.38
2023-11-18T03:57:18.403Z,69.05
2023-11-18T04:07:23.011Z,69.07
2023-11-18T04:17:29.086Z,69.20
2023-11-18T04:27:33.497Z,68.92
2023-11-18T04:37:36.784Z,69.16
2023-11-18T04:47:42.792Z,69.49
2023-11-18T04:57:45.791Z,69.90
2023-11-18T05:07:50.127Z,70.40
2023-11-18T05:17:53.279Z,69.83
2023-11-18T05:27:57.576Z,69.87
2023-11-18T05:38:01.074Z,69.84
2023-11-18T05:48:05.577Z,69.72
2023-11-18T05:58:10.035Z,69.86
2023-11-18T06:08:15.256Z,70.09
2023-11-18T06:18:18.324Z,70.40
2023-11-18T06:28:22.597Z,70.49
2023-11-18T06:38:25.904Z,70.75
2023-11-18T06:48:30.330Z,70.12
2023-11-18T06:58:33.269Z,70.17
2023-11-18T07:08:37.915Z,69.77
2023-11-18T07:18:40.980Z,69.93
2023-11-18T07:28:46.053Z,70.02
2023-11-18T07:38:49.134Z,69.89
2023-11-18T07:48:54.759Z,69.49
2023-11-18T07:58:57.794Z,69.32
2023-11-18T08:09:02.114Z,68.81
2023-11-18T08:19:07.058Z,68.60
2023-11-18T08:29:11.943Z,68.50
2023-11-18T08:39:17.856Z,68.51
2023-11-18T08:49:23.277Z,67.59
2023-11-18T08:59:26.776Z,65.79
2023-11-18T09:09:33.557Z,65.22
2023-11-18T09:19:36.426Z,64.55
2023-11-18T09:29:42.409Z,64.15
2023-11-18T09:39:47.045Z,63.70
2023-11-18T09:49:57.722Z,63.11
2023-11-18T10:00:12.330Z,62.91
2023-11-18T10:10:17.393Z,61.93
2023-11-18T10:20:21.874Z,61.42
2023-11-18T10:30:26.678Z,61.37
2023-11-18T10:40:29.703Z,60.37
2023-11-18T10:50:34.100Z,58.44
2023-11-18T11:00:49.735Z,56.67
2023-11-18T11:10:58.356Z,58.17
2023-11-18T11:21:12.067Z,58.50
2023-11-18T11:31:23.718Z,58.22
2023-11-18T11:41:28.650Z,58.08
2023-11-18T11:51:39.707Z,56.76
2023-11-18T12:01:48.237Z,56.30
2023-11-18T12:11:52.857Z,55.83
2023-11-18T12:22:01.894Z,54.92
2023-11-18T12:32:07.106Z,55.70
2023-11-18T12:42:16.327Z,56.03
2023-11-18T12:52:22.473Z,55.30
2023-11-18T13:02:25.787Z,55.62
2023-11-18T13:12:30.232Z,56.00
2023-11-18T13:22:42.648Z,55.69
2023-11-18T13:32:53.242Z,56.17
2023-11-18T13:43:06.459Z,56.13
2023-11-18T13:53:11.964Z,56.86
2023-11-18T14:03:16.966Z,57.06
2023-11-18T14:13:23.133Z,57.50
2023-11-18T14:23:26.642Z,57.87
2023-11-18T14:33:30.920Z,58.44
2023-11-18T14:43:34.874Z,58.85
2023-11-18T14:53:39.641Z,59.49
2023-11-18T15:03:42.761Z,59.80
2023-11-18T15:13:47.992Z,60.63
2023-11-18T15:23:51.364Z,60.66
2023-11-18T15:33:55.714Z,61.76
2023-11-18T15:43:58.677Z,62.49
2023-11-18T15:54:03.010Z,63.23
2023-11-18T16:04:07.719Z,63.24
2023-11-18T16:14:12.782Z,63.83
2023-11-18T16:24:16.121Z,64.68
2023-11-18T16:34:21.193Z,67.85
2023-11-18T16:44:24.227Z,67.36
2023-11-18T16:54:38.868Z,68.34
2023-11-18T17:04:44.046Z,68.88
2023-11-18T17:14:50.531Z,70.91
2023-11-18T17:24:55.495Z,68.49
2023-11-18T17:35:00.777Z,69.92
2023-11-18T17:45:06.515Z,69.71
2023-11-18T17:55:11.110Z,69.92
2023-11-18T18:05:14.380Z,69.65
2023-11-18T18:15:19.134Z,69.08
2023-11-18T18:25:22.053Z,70.68
2023-11-18T18:35:27.505Z,71.09
2023-11-18T18:45:31.883Z,69.67
2023-11-18T18:55:38.092Z,69.51
2023-11-18T19:05:41.153Z,70.91
2023-11-18T19:15:45.485Z,70.60
2023-11-18T19:25:48.990Z,69.88
2023-11-18T19:35:55.641Z,70.72
2023-11-18T19:45:59.240Z,70.69
2023-11-18T19:56:03.667Z,70.61
2023-11-18T20:06:08.775Z,72.56
2023-11-18T20:16:13.162Z,72.69
2023-11-18T20:26:16.152Z,72.00
2023-11-18T20:36:20.485Z,71.39
2023-11-18T20:46:23.387Z,71.38
2023-11-18T20:56:27.682Z,70.84
2023-11-18T21:06:32.086Z,70.51
2023-11-18T21:16:36.702Z,70.45
2023-11-18T21:26:40.957Z,70.34
2023-11-18T21:36:45.369Z,71.01
2023-11-18T21:46:48.262Z,71.95
2023-11-18T21:56:52.667Z,72.41
2023-11-18T22:06:55.570Z,71.85
2023-11-18T22:17:00.216Z,71.95
2023-11-18T22:27:03.747Z,72.35
2023-11-18T22:37:08.116Z,72.15
2023-11-18T22:47:11.064Z,72.24
2023-11-18T22:57:15.351Z,72.69
2023-11-18T23:07:18.400Z,72.32
2023-11-18T23:17:24.352Z,72.65
2023-11-18T23:27:28.506Z,72.71
2023-11-18T23:37:33.536Z,72.58
2023-11-18T23:47:36.821Z,72.45
2023-11-18T23:57:41.617Z,72.60
